Historyczne dane pomiarowe

Dodano dane terminowe – wersja testowa.

Dane z okresu 1951-2019

Wersja bazy: 1.34 [2019-03-16, lista zmian], aktualizacja planowana na 2019-04-15

Dane meteo z obszaru Polski uzyskane na podstawie danych udostępnionych przez Instytut Meteorologii i Gospodarki Wodnej – Państwowy Instytut Badawczy.

 

Wybierz Datę:    

       

TemperaturaWilgotnośćWiatrCiśnienieOpadyŚniegCzas trwania zjawisk
 Stacja t tx tn tng RH VA  wxwx mslp ppp RRR   cm mm wxwxwxwxwxwxwx
1961-08-14 14.0 20.5 8.4- 80.0- 2.3 1.0---- 0.0------------
1961-08-13 12.8 17.7 11.3- 86.0- 5.3 3.0---- 0.0------------
1961-08-12 16.6 21.7 14.2- 91.0- 8.0 1.0---- 10.7------------
1961-08-11 18.6 24.5 17.2- 93.3- 7.3 3.7---- 7.8------------
1961-08-10 23.7 27.8 17.6- 85.8- 5.7 2.0---- 11.3------------
1961-08-09 21.4 27.9 17.0- 82.5- 4.3 1.0---- 10.8------------
1961-08-08 18.5 23.4 14.1- 82.8- 5.3 2.0---- 0.0------------
1961-08-07 19.3 23.3 17.4- 84.5- 7.7 1.7---- 1.2------------
1961-08-06 23.2 31.2 15.6- 68.8- 2.0 3.3---- 0.0------------
1961-08-05 18.7 25.0 14.6- 81.0- 3.0 2.0---- 0.0------------
1961-08-04 15.8 19.9 8.4- 73.0- 7.3 2.0---- 0.0------------
1961-08-03 14.7 19.7 12.5- 86.3- 5.0 2.3---- 0.4------------
1961-08-02 18.3 26.8 11.0- 79.8- 3.0 2.0---- 2.9------------
1961-08-01 14.6 20.8 11.3- 77.0- 3.7 3.7---- 0.0------------
1961-07-31 12.7 13.7 11.3- 97.0- 8.0 4.7---- 33.5------------
1961-07-30 12.8 15.6 10.0- 91.8- 8.0 1.3---- 26.7------------
1961-07-29 13.2 18.4 11.4- 86.0- 6.7 2.0---- 0.4------------
1961-07-28 17.3 21.6 13.0- 89.3- 8.0 3.3---- 28.4------------
1961-07-27 19.0 25.9 14.6- 75.8- 7.3 3.3---- 2.9------------
1961-07-26 16.8 23.5 9.8- 69.0- 7.0 2.3---- 0.0------------
1961-07-25 13.7 17.9 11.1- 79.3- 7.7 1.3---- 0.0------------
1961-07-24 13.6 16.4 11.0- 78.8- 7.3 2.7---- 0.0------------
1961-07-23 14.5 18.8 10.0- 82.3- 5.0 2.3---- 0.0------------
1961-07-22 14.8 18.7 12.7- 85.0- 7.7 4.0---- 8.2------------
1961-07-21 14.9 18.0 11.6- 82.5- 7.0 4.0---- 0.1------------
1961-07-20 15.4 22.5 9.7- 79.8- 5.0 1.3---- 0.0------------
1961-07-19 13.2 18.7 12.0- 89.3- 5.7 1.3---- 1.5------------
1961-07-18 13.9 18.3 10.8- 84.3- 5.7 2.7---- 4.0------------
1961-07-17 13.6 20.3 9.9- 86.0- 5.0 2.3---- 2.6------------
1961-07-16 15.5 21.7 13.1- 82.8- 6.7 2.0---- 1.4------------
1961-07-15 17.2 23.9 12.7- 82.5- 7.0 1.7---- 24.5------------
1961-07-14 14.2 19.6 12.3- 71.8- 5.0 5.3---- 0.5------------
1961-07-13 19.7 28.1 15.0- 81.0- 4.3 4.0---- 16.9------------
1961-07-12 21.9 28.1 14.0- 68.3- 3.0 1.3---- 0.0------------
1961-07-11 15.9 21.5 8.0- 72.5- 4.0 2.0---- 1.0------------
1961-07-10 13.4 17.8 10.0- 80.5- 4.0 2.3---- 2.0------------
1961-07-09 13.6 17.8 9.5- 87.3- 4.7 2.7---- 5.3------------
1961-07-08 15.7 22.5 6.6- 61.5- 2.0 1.7---- 0.0------------
1961-07-07 12.5 16.8 9.9- 73.5- 6.0 3.0---- 0.0------------
1961-07-06 11.4 14.6 7.4- 88.0- 5.7 3.3---- 2.1------------
1961-07-05 13.6 18.7 11.7- 67.3- 5.0 5.7---- 2.4------------
1961-07-04 18.4 27.6 14.9- 81.5- 6.7 1.7---- 8.5------------
1961-07-03 25.6 32.5 14.6- 54.8- 0.3 2.0---- 0.0------------
1961-07-02 22.2 30.4 10.8- 61.8- 0.0 1.0---- 0.0------------
1961-07-01 20.3 28.3 11.1- 69.5- 1.0 1.7---- 0.0------------
1961-06-30 18.6 26.0 10.3- 71.5- 2.7 1.0---- 0.0------------
1961-06-29 15.2 21.0 9.2- 76.0- 1.7 3.0---- 0.0------------
1961-06-28 13.3 19.5 11.6- 79.3- 5.0 4.3---- 0.0------------
1961-06-27 21.8 31.2 16.5- 84.3- 5.7 2.3---- 12.7------------
1961-06-26 23.3 29.8 13.8- 68.8- 5.0 1.0---- 0.0------------
1961-06-25 21.7 29.3 13.5- 60.5- 2.3 1.3---- 0.0------------
1961-06-24 18.0 24.1 11.7- 72.3- 7.0 3.3---- 0.0------------
1961-06-23 17.2 23.5 14.5- 78.3- 5.0 2.3---- 0.0------------
1961-06-22 18.6 25.3 7.0- 71.0- 4.0 2.0---- 4.2------------
1961-06-21 16.5 24.1 7.7- 67.3- 0.3 2.7---- 1.1------------
1961-06-20 13.6 20.5 8.5- 70.3- 1.3 2.3---- 0.0------------
1961-06-19 15.5 20.5 13.5- 79.3- 6.0 1.3---- 1.8------------
1961-06-18 20.6 27.1 11.0- 60.3- 0.0 1.7---- 0.0------------
1961-06-17 16.0 23.2 7.5- 69.3- 2.7 1.7---- 0.0------------
1961-06-16 11.9 18.0 6.4- 79.3- 4.7 2.0---- 0.0------------
266.4 ms

 

Źródłem pochodzenia danych jest Instytut Meteorologii i Gospodarki Wodnej – Państwowy Instytut Badawczy. Dane Instytutu Meteorologii i Gospodarki Wodnej – Państwowego Instytutu Badawczego zostały przetworzone.

Dane źródłowe można odnaleźć na stronie https://dane.imgw.pl